Time;durP1;ratioP1;P1;durP2;ratioP2;P2;SDS_P1;SDS_P2;PMS_P1;PMS_P2;Temp;Humidity;BMP_temperature;BMP_pressure;BME280_temperature;BME280_humidity;BME280_pressure;Samples;Min_cycle;Max_cycle;Signal;HPM_P1;HPM_P2
2021/11/14 00:00:25;;;;;;;19.52;5.93;;;;;;;22.27;37.69;101336.75;4420501;32;20139;-71
2021/11/14 00:02:54;;;;;;;11.73;5.45;;;;;;;22.37;37.50;101343.91;4417863;32;20029;-71
2021/11/14 00:05:20;;;;;;;12.10;5.60;;;;;;;22.43;37.45;101344.75;4419878;32;20476;-71
2021/11/14 00:07:46;;;;;;;17.30;6.25;;;;;;;22.19;37.55;101350.75;4420006;32;21265;-71
2021/11/14 00:10:12;;;;;;;15.00;6.20;;;;;;;22.04;37.98;101357.88;4419974;32;20469;-71
2021/11/14 00:12:39;;;;;;;15.30;5.78;;;;;;;22.16;37.82;101356.69;4421644;32;21114;-71
2021/11/14 00:15:07;;;;;;;17.05;6.00;;;;;;;22.32;37.60;101358.97;4423348;32;20093;-71
2021/11/14 00:17:33;;;;;;;15.73;5.78;;;;;;;22.39;37.63;101347.03;4423311;32;20437;-71
2021/11/14 00:19:59;;;;;;;14.87;5.60;;;;;;;22.12;37.79;101356.91;4424770;32;20484;-71
2021/11/14 00:22:26;;;;;;;14.20;6.00;;;;;;;22.04;38.01;101355.00;4423123;32;20041;-71
2021/11/14 00:24:52;;;;;;;14.87;5.45;;;;;;;21.95;37.98;101358.81;4420966;32;20417;-71
2021/11/14 00:27:17;;;;;;;16.40;5.62;;;;;;;21.97;37.82;101361.16;4421854;32;20597;-70
2021/11/14 00:29:43;;;;;;;12.10;5.25;;;;;;;22.12;37.68;101359.78;4426443;32;20093;-71
2021/11/14 00:32:09;;;;;;;16.67;5.15;;;;;;;21.69;38.10;101357.91;4421111;32;20076;-71
2021/11/14 00:34:36;;;;;;;12.48;5.45;;;;;;;21.82;37.98;101357.59;4425240;32;20025;-71
2021/11/14 00:37:04;;;;;;;13.13;5.47;;;;;;;21.96;37.64;101354.63;4423660;32;20127;-71
2021/11/14 00:39:30;;;;;;;12.93;4.93;;;;;;;22.04;37.55;101355.78;4423501;32;20096;-71
2021/11/14 00:41:55;;;;;;;12.65;5.22;;;;;;;21.88;37.62;101355.59;4422997;32;20269;-71
2021/11/14 00:44:22;;;;;;;13.98;4.90;;;;;;;21.96;37.55;101368.97;4424539;32;20025;-71
2021/11/14 00:46:48;;;;;;;12.05;4.72;;;;;;;22.11;37.46;101375.41;4421179;32;20172;-71
2021/11/14 00:49:16;;;;;;;12.60;4.68;;;;;;;21.98;37.42;101372.13;4423908;32;20102;-71
2021/11/14 00:51:42;;;;;;;11.35;4.55;;;;;;;21.85;37.71;101365.97;4422436;32;20054;-71
2021/11/14 00:54:09;;;;;;;12.13;4.62;;;;;;;22.02;37.15;101366.16;4424789;32;20195;-71
2021/11/14 00:56:35;;;;;;;12.82;4.20;;;;;;;21.66;37.96;101362.56;4420530;32;20086;-71
2021/11/14 00:59:02;;;;;;;11.90;4.65;;;;;;;21.81;37.62;101364.63;4424756;32;20081;-71
2021/11/14 01:01:28;;;;;;;14.75;4.80;;;;;;;21.72;37.82;101359.78;4422832;32;20121;-70
2021/11/14 01:03:55;;;;;;;13.13;5.12;;;;;;;21.61;38.05;101365.37;4424348;32;20056;-71
2021/11/14 01:06:21;;;;;;;13.93;4.53;;;;;;;21.72;37.87;101371.22;4425834;32;20491;-71
2021/11/14 01:08:47;;;;;;;18.40;5.22;;;;;;;21.62;38.03;101366.94;4424206;32;20463;-71
2021/11/14 01:11:15;;;;;;;10.38;4.80;;;;;;;21.39;38.40;101377.28;4422985;32;20461;-70
2021/11/14 01:13:41;;;;;;;14.20;4.70;;;;;;;21.59;38.34;101370.81;4418956;32;20110;-70
2021/11/14 01:16:10;;;;;;;13.68;4.57;;;;;;;21.18;38.81;101372.03;4421616;32;20038;-71
2021/11/14 01:18:36;;;;;;;9.70;4.65;;;;;;;21.76;38.17;101377.59;4421844;32;20101;-71
2021/11/14 01:21:06;;;;;;;15.70;4.75;;;;;;;21.44;38.53;101388.03;4424716;32;20082;-71
2021/11/14 01:23:33;;;;;;;11.35;4.60;;;;;;;21.73;38.19;101383.50;4423102;32;20085;-71
2021/11/14 01:25:59;;;;;;;13.82;4.80;;;;;;;21.68;38.17;101385.78;4424570;32;20079;-71
2021/11/14 01:28:25;;;;;;;12.02;4.65;;;;;;;21.62;38.01;101372.66;4425800;32;20049;-71
2021/11/14 01:30:54;;;;;;;13.60;4.40;;;;;;;21.33;38.42;101378.50;4422420;32;20388;-71
2021/11/14 01:33:22;;;;;;;14.90;4.95;;;;;;;21.53;38.13;101381.38;4422822;32;20034;-71
2021/11/14 01:35:49;;;;;;;8.98;3.87;;;;;;;21.49;38.32;101380.81;4420194;32;20045;-71
2021/11/14 01:38:15;;;;;;;9.68;4.57;;;;;;;21.14;38.83;101383.66;4421546;32;20100;-71
2021/11/14 01:40:46;;;;;;;12.77;4.93;;;;;;;21.44;38.33;101390.09;4418060;32;20152;-71
2021/11/14 01:43:17;;;;;;;12.80;4.00;;;;;;;21.44;38.39;101401.56;4427983;32;20037;-71
2021/11/14 01:45:43;;;;;;;11.70;4.45;;;;;;;21.48;38.33;101405.78;4421644;32;20052;-71
2021/11/14 01:48:09;;;;;;;12.48;4.57;;;;;;;21.32;38.65;101396.94;4422869;32;20061;-70
2021/11/14 01:50:37;;;;;;;14.75;4.82;;;;;;;21.32;38.65;101400.59;4420258;32;20062;-71
2021/11/14 01:53:03;;;;;;;18.05;5.57;;;;;;;21.48;38.43;101402.16;4422656;32;20091;-71
2021/11/14 01:55:31;;;;;;;13.50;4.90;;;;;;;21.25;39.01;101400.22;4425798;32;20162;-71
2021/11/14 01:57:58;;;;;;;10.10;4.82;;;;;;;21.04;39.26;101404.31;4421711;32;20088;-71
2021/11/14 02:03:00;;;;;;;16.55;5.87;;;;;;;21.21;39.47;101411.91;3975495;32;15142590;-70
2021/11/14 02:05:28;;;;;;;15.45;5.20;;;;;;;21.21;39.47;101411.91;4438665;32;20068;-71
2021/11/14 02:07:57;;;;;;;14.15;4.82;;;;;;;20.97;39.62;101414.09;4438240;32;20065;-70
2021/11/14 02:10:26;;;;;;;11.25;4.70;;;;;;;20.93;39.70;101415.53;4439358;32;20096;-70
2021/11/14 02:12:52;;;;;;;12.15;4.05;;;;;;;20.92;39.79;101417.63;4433052;32;20069;-70
2021/11/14 02:15:18;;;;;;;10.88;4.25;;;;;;;20.79;39.87;101417.13;4440657;32;20523;-70
2021/11/14 02:17:44;;;;;;;16.15;4.95;;;;;;;20.59;39.96;101422.72;4434370;32;20065;-70
2021/11/14 02:20:12;;;;;;;13.32;4.43;;;;;;;20.83;39.79;101429.16;4438750;32;20103;-70
2021/11/14 02:22:39;;;;;;;15.02;4.70;;;;;;;20.90;39.52;101425.88;4437922;32;20376;-70
2021/11/14 02:25:08;;;;;;;11.60;4.47;;;;;;;20.91;39.67;101423.81;4440024;32;20025;-71
2021/11/14 02:27:34;;;;;;;7.80;3.58;;;;;;;21.09;39.55;101437.97;4438182;32;20033;-71
2021/11/14 02:30:01;;;;;;;11.10;3.80;;;;;;;21.00;39.47;101438.88;4436323;32;20394;-71
2021/11/14 02:32:26;;;;;;;12.37;4.07;;;;;;;20.77;40.07;101441.78;4439095;32;20033;-70
2021/11/14 02:34:52;;;;;;;11.10;4.45;;;;;;;20.79;39.93;101437.16;4434483;32;20104;-70
2021/11/14 02:37:18;;;;;;;15.23;4.18;;;;;;;21.00;39.76;101449.50;4438673;32;20042;-70
2021/11/14 02:39:43;;;;;;;10.25;4.37;;;;;;;20.68;40.24;101444.75;4441745;32;20100;-70
2021/11/14 02:42:09;;;;;;;12.93;4.35;;;;;;;20.91;39.76;101441.00;4439472;32;20427;-71
2021/11/14 02:44:35;;;;;;;14.50;4.72;;;;;;;20.69;40.44;101441.41;4438988;32;20136;-70
2021/11/14 02:47:01;;;;;;;15.45;5.22;;;;;;;20.70;40.57;101440.09;4437568;32;20470;-70
2021/11/14 02:49:26;;;;;;;17.08;4.70;;;;;;;20.71;40.72;101444.53;4439632;32;20049;-71
2021/11/14 02:51:53;;;;;;;13.35;4.45;;;;;;;20.58;40.69;101444.03;4436886;32;20425;-70
2021/11/14 02:54:18;;;;;;;9.90;4.37;;;;;;;20.76;40.55;101440.19;4434814;32;20132;-70
2021/11/14 02:56:44;;;;;;;15.85;4.35;;;;;;;20.68;40.83;101448.38;4435018;32;20101;-70
2021/11/14 02:59:10;;;;;;;10.63;4.70;;;;;;;20.54;41.02;101446.31;4435097;32;20446;-70
2021/11/14 03:01:41;;;;;;;11.27;4.95;;;;;;;19.67;42.91;101440.28;4436620;32;20467;-70
2021/11/14 03:04:19;;;;;;;11.68;5.00;;;;;;;20.59;41.20;101459.12;4436408;32;20040;-70
2021/11/14 03:06:47;;;;;;;12.82;4.60;;;;;;;20.76;40.91;101455.31;4436587;32;20145;-70
2021/11/14 03:09:14;;;;;;;17.35;4.22;;;;;;;20.73;41.10;101444.84;4434181;32;20132;-70
2021/11/14 03:11:40;;;;;;;14.38;5.75;;;;;;;20.71;40.93;101455.22;4439292;32;20078;-70
2021/11/14 03:14:06;;;;;;;14.15;4.87;;;;;;;20.29;41.86;101454.63;4427174;32;20073;-70
2021/11/14 03:16:33;;;;;;;17.60;4.22;;;;;;;20.49;41.36;101449.84;4427169;32;20531;-70
2021/11/14 03:18:59;;;;;;;13.30;4.07;;;;;;;20.80;41.03;101452.25;4423756;32;20044;-70
2021/11/14 03:21:26;;;;;;;9.68;3.37;;;;;;;20.87;40.66;101455.53;4426308;32;20367;-70
2021/11/14 03:23:52;;;;;;;10.32;4.07;;;;;;;20.75;40.71;101455.78;4425153;32;20076;-70
2021/11/14 03:26:18;;;;;;;12.40;4.78;;;;;;;20.93;40.34;101458.47;4427264;32;20072;-70
2021/11/14 03:28:44;;;;;;;14.60;4.60;;;;;;;20.97;40.25;101453.38;4426754;32;20111;-70
2021/11/14 03:31:10;;;;;;;17.65;5.85;;;;;;;20.62;40.68;101458.91;4427193;32;20041;-70
2021/11/14 03:33:36;;;;;;;12.40;4.18;;;;;;;20.97;40.34;101459.09;4424345;32;20127;-70
2021/11/14 03:36:08;;;;;;;11.05;3.80;;;;;;;20.85;40.25;101457.28;4424870;32;20086;-70
2021/11/14 03:38:40;;;;;;;9.52;3.40;;;;;;;21.17;39.86;101471.41;4427462;32;20057;-70
2021/11/14 03:41:07;;;;;;;11.98;3.45;;;;;;;21.23;39.45;101460.06;4425965;32;20383;-70
2021/11/14 03:43:35;;;;;;;11.40;3.40;;;;;;;20.97;40.12;101465.59;4425617;32;20065;-70
2021/11/14 03:46:01;;;;;;;7.85;3.30;;;;;;;21.21;39.86;101471.22;4425650;32;20050;-70
2021/11/14 03:48:27;;;;;;;11.45;3.85;;;;;;;21.15;39.90;101467.47;4427360;32;20114;-70
2021/11/14 03:50:53;;;;;;;10.40;2.90;;;;;;;20.66;40.74;101470.97;4425371;32;20069;-70
2021/11/14 03:53:20;;;;;;;10.20;3.15;;;;;;;21.02;40.02;101461.28;4427616;32;20086;-70
2021/11/14 03:55:46;;;;;;;6.07;2.42;;;;;;;21.15;39.70;101470.34;4422221;32;20034;-70
2021/11/14 03:58:12;;;;;;;6.70;2.80;;;;;;;20.99;40.17;101468.75;4426652;32;20069;-70
2021/11/14 04:00:41;;;;;;;9.70;3.50;;;;;;;21.13;39.87;101459.38;4423629;32;20120;-70
2021/11/14 04:03:08;;;;;;;11.43;3.08;;;;;;;21.18;39.54;101466.47;4425094;32;20423;-70
2021/11/14 04:05:36;;;;;;;8.80;3.12;;;;;;;20.94;40.31;101465.75;4427964;32;20066;-70
2021/11/14 04:08:08;;;;;;;11.98;3.28;;;;;;;21.08;39.97;101470.75;4425866;32;20061;-70
2021/11/14 04:10:35;;;;;;;11.02;3.28;;;;;;;21.15;39.77;101471.13;4425862;32;20095;-70
2021/11/14 04:13:00;;;;;;;8.63;3.35;;;;;;;20.84;40.60;101470.81;4426400;32;20034;-70
2021/11/14 04:15:26;;;;;;;11.50;3.55;;;;;;;20.77;40.68;101465.44;4425231;32;20153;-70
2021/11/14 04:17:56;;;;;;;8.65;2.83;;;;;;;20.96;40.34;101475.44;4422815;32;20082;-70
2021/11/14 04:20:24;;;;;;;9.95;2.83;;;;;;;20.93;40.42;101467.81;4425066;32;20072;-70
2021/11/14 04:22:49;;;;;;;10.18;3.30;;;;;;;21.14;40.17;101475.25;4423941;32;20471;-70
2021/11/14 04:25:15;;;;;;;11.45;3.47;;;;;;;21.19;39.99;101479.50;4425849;32;20065;-70
2021/11/14 04:27:41;;;;;;;7.65;2.85;;;;;;;21.22;40.00;101476.44;4424569;32;20066;-70
2021/11/14 04:30:08;;;;;;;13.65;3.92;;;;;;;20.86;40.16;101476.03;4422903;32;21485;-70
2021/11/14 04:32:34;;;;;;;11.93;3.00;;;;;;;21.22;39.74;101482.19;4427846;32;20446;-70
2021/11/14 04:34:59;;;;;;;14.73;3.70;;;;;;;21.03;40.16;101486.53;4422184;32;20060;-70
2021/11/14 04:37:25;;;;;;;11.02;2.92;;;;;;;20.99;40.21;101488.78;4424591;32;20087;-70
2021/11/14 04:39:51;;;;;;;9.00;2.80;;;;;;;21.07;40.22;101483.44;4425540;32;20025;-70
2021/11/14 04:42:17;;;;;;;12.77;2.95;;;;;;;21.13;40.16;101490.87;4426869;32;20096;-70
2021/11/14 04:44:43;;;;;;;13.60;2.80;;;;;;;21.12;40.02;101486.44;4425062;32;20034;-70
2021/11/14 04:47:08;;;;;;;8.68;2.80;;;;;;;21.09;39.98;101496.00;4426656;32;20367;-70
2021/11/14 04:49:35;;;;;;;10.68;3.12;;;;;;;20.60;40.80;101492.97;4424290;32;20025;-70
2021/11/14 04:52:01;;;;;;;8.98;2.62;;;;;;;20.81;40.44;101506.12;4427526;32;20071;-70
2021/11/14 04:54:26;;;;;;;9.35;2.83;;;;;;;20.92;40.44;101492.00;4424563;32;20086;-70
2021/11/14 04:56:52;;;;;;;8.20;2.85;;;;;;;20.78;40.51;101506.31;4425495;32;20080;-70
2021/11/14 04:59:18;;;;;;;8.65;2.97;;;;;;;21.02;40.25;101504.19;4425569;32;20097;-70
2021/11/14 05:01:44;;;;;;;12.60;3.00;;;;;;;20.95;40.33;101499.62;4423675;32;20076;-70
2021/11/14 05:04:12;;;;;;;6.53;3.05;;;;;;;20.58;40.67;101498.37;4424498;32;20034;-70
2021/11/14 05:06:38;;;;;;;9.48;2.85;;;;;;;20.93;40.50;101496.44;4426150;32;20021;-70
2021/11/14 05:09:04;;;;;;;10.55;3.03;;;;;;;21.07;40.29;101500.63;4423441;32;20141;-70
2021/11/14 05:11:30;;;;;;;6.82;2.85;;;;;;;20.99;40.66;101505.19;4426649;32;20351;-70
2021/11/14 05:13:56;;;;;;;8.02;2.92;;;;;;;20.89;40.45;101513.03;4424321;32;20038;-70
2021/11/14 05:16:22;;;;;;;8.32;2.80;;;;;;;21.04;40.40;101505.28;4422957;32;20766;-70
2021/11/14 05:18:48;;;;;;;11.38;3.20;;;;;;;20.97;40.51;101514.25;4425935;32;20414;-70
2021/11/14 05:21:14;;;;;;;9.75;2.83;;;;;;;20.81;40.65;101511.03;4427341;32;20069;-70
2021/11/14 05:23:39;;;;;;;12.77;3.17;;;;;;;20.99;40.31;101510.91;4424901;32;20141;-70
2021/11/14 05:26:05;;;;;;;9.70;2.90;;;;;;;21.04;40.40;101504.47;4424235;32;20369;-70
2021/11/14 05:28:32;;;;;;;11.77;2.87;;;;;;;21.01;40.42;101502.59;4426729;32;20370;-70
2021/11/14 05:30:57;;;;;;;12.23;3.20;;;;;;;20.92;40.75;101506.31;4424534;32;20065;-70
2021/11/14 05:33:23;;;;;;;16.00;4.18;;;;;;;20.76;40.94;101506.00;4425445;32;20120;-70
2021/11/14 05:35:49;;;;;;;9.52;3.53;;;;;;;20.79;41.00;101511.53;4424422;32;20073;-70
2021/11/14 05:38:15;;;;;;;10.07;3.50;;;;;;;20.97;40.68;101514.25;4424193;32;20449;-70
2021/11/14 05:40:42;;;;;;;10.77;3.33;;;;;;;21.23;40.16;101512.38;4427215;32;20089;-70
2021/11/14 05:43:08;;;;;;;8.82;3.17;;;;;;;21.16;40.34;101507.06;4426510;32;20099;-70
2021/11/14 05:45:35;;;;;;;10.55;3.25;;;;;;;21.20;40.37;101507.63;4424326;32;20097;-70
2021/11/14 05:48:01;;;;;;;13.50;3.20;;;;;;;21.19;40.40;101514.66;4421539;32;20073;-70
2021/11/14 05:50:27;;;;;;;11.15;3.30;;;;;;;20.90;40.86;101516.69;4424555;32;20472;-70
2021/11/14 05:52:54;;;;;;;10.95;3.42;;;;;;;21.18;40.29;101518.00;4423152;32;20057;-69
2021/11/14 05:55:20;;;;;;;8.02;3.12;;;;;;;21.20;40.35;101521.94;4427149;32;20628;-70
2021/11/14 06:00:46;;;;;;;10.77;3.50;;;;;;;21.41;39.86;101528.56;3985228;32;15021913;-70
2021/11/14 06:06:03;;;;;;;14.07;3.50;;;;;;;21.76;39.61;101535.19;3985943;32;15021897;-70
2021/11/14 06:08:29;;;;;;;8.80;3.12;;;;;;;21.76;39.61;101535.19;4440130;32;20033;-70
2021/11/14 06:10:55;;;;;;;10.50;3.58;;;;;;;21.23;40.29;101526.69;4437427;32;20033;-70
2021/11/14 06:13:25;;;;;;;7.40;2.92;;;;;;;21.28;40.35;101528.87;4436683;32;20406;-70
2021/11/14 06:15:51;;;;;;;12.95;3.72;;;;;;;21.40;40.19;101536.38;4436285;32;20095;-70
2021/11/14 06:18:17;;;;;;;11.52;3.70;;;;;;;21.41;40.16;101532.22;4434808;32;20072;-70
2021/11/14 06:20:43;;;;;;;11.50;3.10;;;;;;;21.38;40.28;101532.41;4436548;32;20106;-70
2021/11/14 06:23:10;;;;;;;11.73;3.28;;;;;;;21.38;40.02;101538.94;4437914;32;20021;-70
2021/11/14 06:25:37;;;;;;;7.57;3.10;;;;;;;21.50;40.05;101540.72;4436348;32;20428;-70
2021/11/14 06:28:03;;;;;;;14.13;4.72;;;;;;;21.35;40.19;101537.06;4434861;32;20029;-70
2021/11/14 06:30:29;;;;;;;13.73;4.45;;;;;;;21.14;40.47;101543.19;4438762;32;20094;-70
2021/11/14 06:32:55;;;;;;;14.10;3.75;;;;;;;21.17;40.65;101545.06;4436360;32;20062;-70
2021/11/14 06:35:20;;;;;;;8.50;3.10;;;;;;;21.26;40.36;101542.88;4438973;32;20108;-70
2021/11/14 06:37:46;;;;;;;6.85;2.83;;;;;;;21.23;40.37;101558.19;4434952;32;20102;-70
2021/11/14 06:40:13;;;;;;;10.65;3.05;;;;;;;21.39;40.24;101569.16;4437350;32;20069;-70
2021/11/14 06:42:39;;;;;;;12.02;3.65;;;;;;;21.40;40.22;101567.88;4436969;32;20026;-70
2021/11/14 06:45:06;;;;;;;13.95;3.65;;;;;;;21.42;40.06;101570.25;4438096;32;20416;-70
2021/11/14 06:47:32;;;;;;;10.45;3.62;;;;;;;21.24;40.46;101579.03;4436911;32;20438;-70
2021/11/14 06:49:58;;;;;;;6.95;3.20;;;;;;;21.40;40.33;101578.53;4437354;32;20017;-70
2021/11/14 06:52:24;;;;;;;6.72;3.15;;;;;;;21.40;40.27;101590.78;4436349;32;20086;-70
2021/11/14 06:54:50;;;;;;;8.65;3.30;;;;;;;21.46;40.22;101588.81;4438928;32;20068;-70
2021/11/14 06:57:18;;;;;;;10.45;3.90;;;;;;;21.55;40.16;101587.91;4438335;32;20087;-70
2021/11/14 06:59:45;;;;;;;8.98;3.22;;;;;;;21.40;40.08;101590.78;4438218;32;20080;-70
2021/11/14 07:02:11;;;;;;;11.48;3.45;;;;;;;21.43;40.53;101586.94;4439812;32;20092;-70
2021/11/14 07:04:37;;;;;;;7.55;3.37;;;;;;;21.36;40.27;101589.41;4436297;32;20112;-70
2021/11/14 07:07:05;;;;;;;14.15;3.90;;;;;;;21.69;39.89;101589.97;4435021;32;20140;-70
2021/11/14 07:09:31;;;;;;;9.13;3.22;;;;;;;21.68;40.06;101597.78;4435831;32;20433;-70
2021/11/14 07:11:57;;;;;;;11.80;3.70;;;;;;;21.52;40.17;101601.16;4435073;32;20320;-70
2021/11/14 07:14:24;;;;;;;11.90;3.60;;;;;;;21.31;40.46;101605.19;4438236;32;20126;-70
2021/11/14 07:16:52;;;;;;;14.10;4.03;;;;;;;21.51;40.19;101608.16;4425516;32;20093;-70
2021/11/14 07:19:18;;;;;;;9.75;3.25;;;;;;;21.49;40.42;101613.59;4425214;32;20052;-70
2021/11/14 07:21:45;;;;;;;10.52;5.60;;;;;;;21.67;39.95;101621.22;4429511;32;20050;-70
2021/11/14 07:24:12;;;;;;;11.27;3.78;;;;;;;21.72;39.75;101619.72;4424839;32;20069;-70
2021/11/14 07:26:39;;;;;;;11.55;3.92;;;;;;;21.77;39.84;101613.31;4425942;32;20108;-70
2021/11/14 07:29:04;;;;;;;9.95;3.62;;;;;;;21.70;39.86;101621.00;4423424;32;20428;-70
2021/11/14 07:31:32;;;;;;;11.05;4.03;;;;;;;21.61;40.03;101623.97;4426563;32;20060;-70
2021/11/14 07:33:57;;;;;;;16.80;3.75;;;;;;;21.66;40.19;101634.72;4427500;32;20064;-70
2021/11/14 07:36:23;;;;;;;10.98;3.78;;;;;;;21.50;40.46;101632.38;4427150;32;20033;-70
2021/11/14 07:38:50;;;;;;;9.55;3.37;;;;;;;21.38;40.30;101626.91;4423168;32;20018;-70
2021/11/14 07:41:15;;;;;;;11.43;3.85;;;;;;;21.43;40.44;101632.75;4429660;32;20026;-70
2021/11/14 07:43:42;;;;;;;11.02;4.10;;;;;;;21.64;40.13;101634.44;4426984;32;20386;-71
2021/11/14 07:46:08;;;;;;;11.90;3.90;;;;;;;21.47;40.52;101641.13;4425197;32;20069;-70
2021/11/14 07:48:35;;;;;;;9.15;3.90;;;;;;;21.68;40.18;101634.25;4421262;32;20090;-70
2021/11/14 07:51:01;;;;;;;12.50;4.47;;;;;;;21.59;40.23;101643.72;4426692;32;20407;-70
2021/11/14 07:53:28;;;;;;;10.50;4.28;;;;;;;21.72;40.13;101648.38;4426580;32;20470;-70
2021/11/14 07:55:54;;;;;;;12.52;3.90;;;;;;;21.91;39.78;101647.72;4425899;32;20371;-70
2021/11/14 07:58:20;;;;;;;10.10;4.00;;;;;;;21.90;39.79;101648.97;4424444;32;20523;-70
2021/11/14 08:00:47;;;;;;;10.32;3.65;;;;;;;21.85;39.91;101648.91;4423660;32;20121;-70
2021/11/14 08:03:13;;;;;;;12.65;3.75;;;;;;;21.75;40.03;101653.16;4422597;32;20078;-70
2021/11/14 08:05:40;;;;;;;10.05;3.80;;;;;;;21.72;40.28;101654.88;4423867;32;20077;-70
2021/11/14 08:08:06;;;;;;;7.55;3.80;;;;;;;21.92;40.03;101642.75;4425899;32;21153;-70
2021/11/14 08:10:33;;;;;;;12.73;4.12;;;;;;;21.81;40.11;101645.44;4426565;32;20158;-70
2021/11/14 08:13:00;;;;;;;8.07;4.20;;;;;;;21.77;39.98;101653.44;4424514;32;20078;-70
2021/11/14 08:15:26;;;;;;;9.30;4.05;;;;;;;21.66;40.40;101654.00;4423003;32;20092;-70
2021/11/14 08:17:51;;;;;;;11.30;3.95;;;;;;;21.79;39.87;101662.34;4425437;32;20038;-70
2021/11/14 08:20:18;;;;;;;13.80;4.40;;;;;;;21.78;40.15;101650.06;4423407;32;20133;-70
2021/11/14 08:22:44;;;;;;;9.13;4.00;;;;;;;21.97;39.87;101648.59;4423632;32;20070;-70
2021/11/14 08:25:13;;;;;;;7.60;4.15;;;;;;;21.92;39.86;101651.34;4425782;32;20076;-70
2021/11/14 08:27:39;;;;;;;9.10;3.95;;;;;;;22.08;39.79;101659.44;4425318;32;20069;-70
2021/11/14 08:30:08;;;;;;;8.18;4.20;;;;;;;22.05;39.69;101661.22;4424942;32;20133;-70
2021/11/14 08:32:34;;;;;;;10.65;4.72;;;;;;;22.33;39.18;101664.56;4421188;32;20053;-70
2021/11/14 08:34:59;;;;;;;9.05;4.53;;;;;;;22.23;39.27;101666.75;4424327;32;20428;-70
2021/11/14 08:37:26;;;;;;;14.05;4.60;;;;;;;22.27;39.44;101666.53;4421937;32;20148;-70
2021/11/14 08:39:51;;;;;;;11.25;4.62;;;;;;;22.21;39.50;101671.41;4426013;32;20065;-70
2021/11/14 08:42:17;;;;;;;11.52;5.62;;;;;;;21.99;39.64;101666.06;4425366;32;20030;-70
2021/11/14 08:44:46;;;;;;;13.32;5.78;;;;;;;22.05;39.82;101669.81;4425190;32;20696;-70
2021/11/14 08:47:12;;;;;;;12.55;6.10;;;;;;;22.15;39.92;101674.16;4423504;32;20764;-70
2021/11/14 08:49:38;;;;;;;16.02;6.70;;;;;;;21.91;39.76;101678.44;4420352;32;20097;-70
2021/11/14 08:52:04;;;;;;;19.27;7.65;;;;;;;22.02;40.67;101682.28;4425944;32;20126;-70
2021/11/14 08:54:31;;;;;;;15.40;7.15;;;;;;;22.06;40.94;101682.09;4424444;32;20398;-70
2021/11/14 08:56:56;;;;;;;20.23;7.50;;;;;;;21.71;41.50;101679.09;4424925;32;20097;-70
2021/11/14 08:59:22;;;;;;;15.85;6.30;;;;;;;21.81;41.14;101688.44;4423314;32;20096;-70
2021/11/14 09:01:48;;;;;;;15.15;6.50;;;;;;;21.53;41.87;101688.66;4424388;32;20438;-70
2021/11/14 09:04:14;;;;;;;18.48;7.65;;;;;;;21.95;41.37;101687.63;4423170;32;20041;-70
2021/11/14 09:06:40;;;;;;;21.37;7.78;;;;;;;21.66;41.72;101683.44;4422879;32;20056;-70
2021/11/14 09:09:10;;;;;;;23.00;8.15;;;;;;;21.94;41.55;101681.13;4423563;32;20130;-70
2021/11/14 09:11:38;;;;;;;22.52;7.53;;;;;;;22.28;41.09;101683.25;4425999;32;20408;-70
2021/11/14 09:14:04;;;;;;;16.85;6.70;;;;;;;22.02;41.36;101685.16;4427613;32;20055;-70
2021/11/14 09:16:29;;;;;;;19.27;7.28;;;;;;;22.13;41.26;101681.69;4422323;32;20720;-70
2021/11/14 09:18:56;;;;;;;20.58;7.47;;;;;;;22.08;41.15;101697.50;4424523;32;20069;-70
2021/11/14 09:21:23;;;;;;;15.35;7.97;;;;;;;22.32;41.09;101694.50;4424094;32;20026;-70
2021/11/14 09:23:49;;;;;;;20.02;7.80;;;;;;;22.21;41.57;101711.53;4420927;32;20060;-70
2021/11/14 09:26:16;;;;;;;17.83;8.10;;;;;;;21.93;41.88;101713.12;4424251;32;20062;-70
2021/11/14 09:28:42;;;;;;;22.10;8.25;;;;;;;21.95;42.29;101710.56;4421848;32;20463;-70
2021/11/14 09:31:10;;;;;;;18.95;7.70;;;;;;;21.92;42.33;101717.28;4426410;32;20141;-70
2021/11/14 09:33:35;;;;;;;19.17;7.28;;;;;;;21.98;42.86;101724.69;4422089;32;20508;-70
2021/11/14 09:36:02;;;;;;;22.80;8.02;;;;;;;21.67;43.62;101721.50;4423263;32;20045;-70
2021/11/14 09:38:27;;;;;;;20.23;7.90;;;;;;;21.84;43.53;101719.75;4423789;32;20581;-70
2021/11/14 09:40:54;;;;;;;17.10;7.43;;;;;;;21.79;43.61;101725.37;4422914;32;20069;-70
2021/11/14 09:43:20;;;;;;;22.52;7.72;;;;;;;21.87;43.55;101717.97;4425346;32;20540;-70
2021/11/14 09:45:48;;;;;;;22.60;8.40;;;;;;;21.51;44.21;101719.09;4423771;32;20654;-70
2021/11/14 09:48:14;;;;;;;23.90;7.40;;;;;;;21.75;43.98;101725.56;4424791;32;20125;-69
2021/11/14 09:50:40;;;;;;;17.67;7.65;;;;;;;21.72;44.24;101725.75;4425058;32;20066;-69
2021/11/14 09:53:08;;;;;;;18.83;8.48;;;;;;;21.81;44.21;101729.31;4426500;32;20038;-70
2021/11/14 09:55:35;;;;;;;21.17;8.98;;;;;;;21.96;44.07;101729.34;4423674;32;20192;-70
2021/11/14 09:58:04;;;;;;;22.65;8.30;;;;;;;21.76;44.08;101738.63;4422506;32;20120;-70
2021/11/14 10:00:30;;;;;;;20.58;8.27;;;;;;;22.05;43.85;101740.69;4424586;32;20084;-70
2021/11/14 10:02:56;;;;;;;20.88;8.05;;;;;;;21.75;44.18;101725.56;4424654;32;20270;-70
2021/11/14 10:05:22;;;;;;;21.30;8.88;;;;;;;21.90;44.02;101726.38;4419940;32;20698;-70
2021/11/14 10:07:57;;;;;;;25.90;10.13;;;;;;;22.02;43.93;101733.09;4425343;32;20443;-69
2021/11/14 10:10:28;;;;;;;19.17;9.27;;;;;;;22.27;43.57;101738.25;4423645;32;20013;-69
2021/11/14 10:12:54;;;;;;;25.88;8.63;;;;;;;22.26;43.83;101730.91;4423350;32;20038;-69
2021/11/14 10:15:22;;;;;;;21.70;9.77;;;;;;;22.02;44.07;101733.88;4425812;32;20358;-69
2021/11/14 10:17:55;;;;;;;23.60;9.18;;;;;;;21.96;44.22;101737.94;4422542;32;20158;-69
2021/11/14 10:20:25;;;;;;;24.83;10.00;;;;;;;22.14;43.76;101747.12;4427676;32;20022;-69
2021/11/14 10:22:56;;;;;;;23.55;9.70;;;;;;;22.27;43.58;101747.59;4424319;32;20030;-70
2021/11/14 10:25:23;;;;;;;26.25;10.30;;;;;;;22.47;43.35;101755.50;4426703;32;20030;-70
2021/11/14 10:27:54;;;;;;;23.27;9.77;;;;;;;22.38;43.31;101738.41;4420319;32;20077;-70
2021/11/14 10:30:25;;;;;;;22.27;10.25;;;;;;;22.47;43.27;101758.38;4424206;32;20060;-70
2021/11/14 10:32:52;;;;;;;28.20;10.20;;;;;;;22.37;43.13;101751.94;4423222;32;20103;-70
2021/11/14 10:35:18;;;;;;;25.58;10.82;;;;;;;22.39;43.40;101760.06;4424916;32;20122;-70
2021/11/14 10:37:44;;;;;;;27.75;11.23;;;;;;;22.33;43.48;101764.94;4425501;32;20089;-70
2021/11/14 10:40:18;;;;;;;23.52;10.95;;;;;;;22.30;43.32;101760.19;4424075;32;20074;-70
2021/11/14 10:42:54;;;;;;;25.90;12.05;;;;;;;22.20;43.14;101761.56;4421256;32;20092;-70
2021/11/14 10:45:21;;;;;;;24.50;11.43;;;;;;;22.46;43.11;101754.72;4423395;32;20026;-70
2021/11/14 10:50:36;;;;;;;28.38;11.38;;;;;;;23.10;42.66;101771.91;3987135;32;15024692;-70
2021/11/14 10:53:05;;;;;;;36.05;11.48;;;;;;;23.10;42.66;101771.91;4433851;32;20084;-70
2021/11/14 10:55:37;;;;;;;27.45;11.68;;;;;;;22.78;42.19;101770.91;4428639;32;20077;-70
2021/11/14 10:58:03;;;;;;;28.58;11.57;;;;;;;22.43;43.18;101769.28;4427637;32;20095;-70
2021/11/14 11:00:30;;;;;;;30.42;12.32;;;;;;;22.53;43.05;101770.75;4430536;32;20018;-70
2021/11/14 11:02:56;;;;;;;28.27;12.35;;;;;;;22.61;42.64;101778.47;4432762;32;20080;-70
2021/11/14 11:05:25;;;;;;;27.05;12.40;;;;;;;22.83;42.44;101767.31;4429659;32;20088;-70
2021/11/14 11:13:12;;;;;;;33.38;13.93;;;;;;;23.84;40.97;101771.00;3983510;32;15022288;-70
2021/11/14 11:18:19;;;;;;;31.90;14.20;;;;;;;24.30;40.12;101771.75;3980647;32;15025174;-71
2021/11/14 11:20:49;;;;;;;38.97;16.37;;;;;;;24.30;40.12;101771.75;4434973;32;20164;-71
2021/11/14 11:23:17;;;;;;;34.13;14.90;;;;;;;23.80;40.57;101773.31;4433317;32;20096;-71
2021/11/14 11:33:42;;;;;;;38.70;15.45;;;;;;;24.56;39.26;101772.53;4002538;31;15015342;-70
2021/11/14 11:36:13;;;;;;;35.35;16.02;;;;;;;24.56;39.26;101772.53;4456896;32;20151;-70
2021/11/14 11:38:42;;;;;;;29.52;16.45;;;;;;;24.28;39.28;101767.84;4458006;32;20194;-70
2021/11/14 11:41:08;;;;;;;31.42;14.90;;;;;;;24.52;39.32;101766.22;4454555;32;20063;-70